Time;durP1;ratioP1;P1;durP2;ratioP2;P2;SDS_P1;SDS_P2;PMS_P1;PMS_P2;Temp;Humidity;BMP_temperature;BMP_pressure;BME280_temperature;BME280_humidity;BME280_pressure;Samples;Min_cycle;Max_cycle;Signal;HPM_P1;HPM_P2
2023/06/09 00:01:44;;;;;;;6.78;3.83;;;20.70;93.70;;;;;;4913837;29;20720;-78
2023/06/09 00:04:13;;;;;;;5.85;4.45;;;20.70;93.80;;;;;;4912348;29;20056;-78
2023/06/09 00:06:39;;;;;;;5.95;3.85;;;20.80;93.80;;;;;;4918035;29;20068;-79
2023/06/09 00:09:06;;;;;;;5.68;3.70;;;20.70;93.80;;;;;;4918578;29;20063;-79
2023/06/09 00:11:35;;;;;;;5.10;3.47;;;20.70;93.90;;;;;;4926553;29;20076;-79
2023/06/09 00:14:01;;;;;;;6.00;4.47;;;20.70;93.90;;;;;;4912185;29;20052;-78
2023/06/09 00:16:28;;;;;;;4.15;3.33;;;20.70;94.00;;;;;;4924392;29;20036;-79
2023/06/09 00:18:55;;;;;;;6.18;3.95;;;20.70;94.10;;;;;;4908221;29;20044;-79
2023/06/09 00:21:21;;;;;;;8.25;3.90;;;20.70;94.10;;;;;;4932237;29;20565;-78
2023/06/09 00:23:47;;;;;;;6.88;4.03;;;20.70;94.20;;;;;;4938059;29;20201;-79
2023/06/09 00:26:13;;;;;;;6.95;4.30;;;20.60;94.10;;;;;;4945482;29;20048;-79
2023/06/09 00:28:39;;;;;;;5.43;4.00;;;20.70;94.30;;;;;;4894352;29;20048;-79
2023/06/09 00:31:05;;;;;;;4.82;3.72;;;20.60;94.50;;;;;;4934012;29;20859;-79
2023/06/09 00:33:31;;;;;;;6.55;4.63;;;20.60;94.60;;;;;;4933707;29;20135;-79
2023/06/09 00:35:56;;;;;;;7.32;4.22;;;20.60;94.40;;;;;;4931828;29;20051;-79
2023/06/09 00:38:22;;;;;;;7.10;4.68;;;20.60;94.40;;;;;;4921306;29;20043;-79
2023/06/09 00:40:51;;;;;;;6.65;4.35;;;20.50;94.40;;;;;;4928759;29;20044;-79
2023/06/09 00:43:17;;;;;;;6.50;4.28;;;20.60;94.50;;;;;;4937424;29;20508;-79
2023/06/09 00:45:42;;;;;;;5.32;4.10;;;20.50;94.60;;;;;;4935082;29;20158;-78
2023/06/09 00:48:09;;;;;;;5.47;3.80;;;20.50;94.80;;;;;;4923580;29;20044;-78
2023/06/09 00:50:35;;;;;;;6.65;4.18;;;20.50;95.00;;;;;;4913155;29;20123;-79
2023/06/09 00:53:01;;;;;;;6.85;4.25;;;20.50;95.10;;;;;;4931710;29;20537;-79
2023/06/09 00:55:27;;;;;;;5.63;4.15;;;20.60;95.60;;;;;;4912792;29;20044;-78
2023/06/09 00:57:55;;;;;;;5.57;3.97;;;20.50;96.10;;;;;;4935959;29;20347;-79
2023/06/09 01:00:27;;;;;;;5.00;3.78;;;20.50;96.10;;;;;;4936838;29;20139;-79
2023/06/09 01:03:00;;;;;;;7.20;4.47;;;20.50;97.00;;;;;;4919839;29;20103;-79
2023/06/09 01:05:33;;;;;;;8.27;4.38;;;20.50;97.00;;;;;;4896865;29;20044;-79
2023/06/09 01:08:14;;;;;;;6.43;4.10;;;20.50;97.10;;;;;;4929562;29;20080;-79
2023/06/09 01:10:48;;;;;;;6.60;4.35;;;20.50;97.20;;;;;;4901366;29;20142;-78
2023/06/09 01:13:25;;;;;;;5.88;4.30;;;20.50;97.40;;;;;;4926888;29;20390;-78
2023/06/09 01:15:55;;;;;;;6.82;4.30;;;20.50;97.50;;;;;;4906498;29;20044;-78
2023/06/09 01:18:24;;;;;;;5.78;4.68;;;20.50;97.40;;;;;;4935183;29;20052;-78
2023/06/09 01:21:24;;;;;;;7.72;4.47;;;20.40;97.50;;;;;;4910654;29;20052;-78
2023/06/09 01:24:32;;;;;;;9.63;5.03;;;20.40;97.60;;;;;;4925256;29;20051;-79
2023/06/09 01:27:01;;;;;;;6.00;4.05;;;20.40;97.70;;;;;;4912276;29;20044;-78
2023/06/09 01:29:30;;;;;;;6.18;4.60;;;20.40;97.70;;;;;;4916830;29;20159;-78
2023/06/09 01:31:56;;;;;;;7.55;4.60;;;20.40;97.70;;;;;;4934771;29;20057;-78
2023/06/09 01:34:22;;;;;;;6.35;4.80;;;20.40;97.60;;;;;;4920604;29;20044;-78
2023/06/09 01:36:48;;;;;;;6.57;4.53;;;20.30;97.60;;;;;;4914292;29;20126;-78
2023/06/09 01:39:14;;;;;;;7.30;4.90;;;20.30;97.60;;;;;;4904544;29;20048;-78
2023/06/09 01:41:41;;;;;;;6.70;4.75;;;20.30;97.70;;;;;;4916634;29;20040;-78
2023/06/09 01:44:07;;;;;;;5.32;4.55;;;20.30;98.00;;;;;;4923776;29;20048;-78
2023/06/09 01:46:33;;;;;;;6.93;4.75;;;20.30;98.00;;;;;;4907976;29;20044;-78
2023/06/09 01:49:06;;;;;;;7.07;4.78;;;20.30;98.10;;;;;;4926326;29;20044;-78
2023/06/09 01:51:41;;;;;;;8.38;4.85;;;20.30;98.60;;;;;;4918128;29;20127;-78
2023/06/09 01:54:12;;;;;;;9.52;5.10;;;20.20;98.50;;;;;;4941056;29;20071;-78
2023/06/09 01:56:40;;;;;;;8.15;5.10;;;20.20;98.60;;;;;;4903539;29;20052;-78
2023/06/09 01:59:07;;;;;;;7.70;5.60;;;20.20;98.70;;;;;;4902342;29;20047;-78
2023/06/09 02:01:33;;;;;;;6.90;5.25;;;20.10;98.50;;;;;;4933998;29;20052;-78
2023/06/09 02:03:59;;;;;;;5.97;4.95;;;20.10;98.70;;;;;;4933280;29;20071;-78
2023/06/09 02:06:25;;;;;;;8.30;5.10;;;20.00;98.70;;;;;;4912198;29;20477;-78
2023/06/09 02:08:51;;;;;;;7.10;5.55;;;20.00;98.40;;;;;;4934352;29;20078;-78
2023/06/09 02:11:16;;;;;;;7.70;5.25;;;20.00;98.40;;;;;;4910260;29;20127;-78
2023/06/09 02:13:43;;;;;;;6.93;5.55;;;20.00;98.40;;;;;;4917645;29;20691;-78
2023/06/09 02:16:08;;;;;;;7.45;5.10;;;19.90;98.60;;;;;;4935069;29;20040;-78
2023/06/09 02:18:34;;;;;;;6.30;5.32;;;19.90;98.80;;;;;;4919228;29;20441;-78
2023/06/09 02:21:00;;;;;;;7.85;5.50;;;19.80;98.90;;;;;;4928363;29;20048;-79
2023/06/09 02:23:25;;;;;;;8.90;5.63;;;19.80;99.00;;;;;;4903422;29;20359;-78
2023/06/09 02:25:51;;;;;;;8.45;6.07;;;19.80;99.00;;;;;;4919238;29;20063;-78
2023/06/09 02:28:17;;;;;;;6.13;5.20;;;19.80;99.00;;;;;;4904903;29;20044;-78
2023/06/09 02:30:43;;;;;;;6.18;5.57;;;19.80;99.00;;;;;;4919308;29;20040;-78
2023/06/09 02:33:10;;;;;;;8.68;5.82;;;19.80;99.10;;;;;;4906759;29;20132;-78
2023/06/09 02:35:37;;;;;;;8.90;5.70;;;19.80;99.00;;;;;;4900728;29;20166;-78
2023/06/09 02:38:06;;;;;;;7.93;5.47;;;19.80;99.00;;;;;;4913829;29;20119;-78
2023/06/09 02:40:32;;;;;;;10.48;6.20;;;19.80;99.10;;;;;;4923167;29;20055;-78
2023/06/09 02:42:59;;;;;;;10.02;5.80;;;19.80;99.30;;;;;;4929524;29;20188;-78
2023/06/09 02:45:24;;;;;;;7.40;5.90;;;19.70;99.40;;;;;;4925601;29;20059;-78
2023/06/09 02:47:50;;;;;;;9.38;5.32;;;19.70;99.60;;;;;;4910385;29;20052;-78
2023/06/09 02:50:16;;;;;;;8.50;5.68;;;19.70;99.70;;;;;;4928453;29;20516;-78
2023/06/09 02:52:42;;;;;;;8.65;5.40;;;19.70;99.90;;;;;;4910578;29;20044;-78
2023/06/09 02:55:08;;;;;;;8.63;5.60;;;19.70;99.70;;;;;;4906507;29;20111;-78
2023/06/09 02:57:34;;;;;;;9.30;5.60;;;19.70;99.70;;;;;;4909298;29;20040;-78
2023/06/09 03:00:03;;;;;;;6.90;5.35;;;19.60;99.80;;;;;;4893134;29;20044;-78
2023/06/09 03:02:30;;;;;;;9.30;5.90;;;19.60;99.70;;;;;;4930363;29;20048;-78
2023/06/09 03:04:56;;;;;;;8.60;6.05;;;19.70;99.90;;;;;;4917917;29;20052;-78
2023/06/09 03:07:22;;;;;;;9.15;6.22;;;19.60;99.90;;;;;;4890721;29;20437;-78
2023/06/09 03:09:48;;;;;;;7.82;5.93;;;19.60;99.90;;;;;;4911613;29;20055;-78
2023/06/09 03:12:14;;;;;;;9.02;6.35;;;19.60;99.90;;;;;;4943388;29;20111;-78
2023/06/09 03:14:40;;;;;;;9.60;6.10;;;19.60;99.90;;;;;;4943342;29;20428;-78
2023/06/09 03:17:05;;;;;;;10.07;6.45;;;19.60;99.90;;;;;;4926431;29;20067;-78
2023/06/09 03:19:31;;;;;;;8.98;6.50;;;19.60;99.90;;;;;;4922955;29;20058;-78
2023/06/09 03:21:57;;;;;;;9.38;6.53;;;19.50;99.90;;;;;;4915712;29;20462;-79
2023/06/09 03:24:26;;;;;;;8.60;6.65;;;19.60;99.90;;;;;;4916804;29;20048;-79
2023/06/09 03:26:53;;;;;;;9.40;6.55;;;19.50;99.90;;;;;;4917938;29;20055;-79
2023/06/09 03:29:19;;;;;;;9.23;6.65;;;19.50;99.90;;;;;;4916909;29;20083;-79
2023/06/09 03:31:45;;;;;;;7.10;5.80;;;19.50;99.90;;;;;;4901987;29;20048;-79
2023/06/09 03:34:11;;;;;;;9.10;6.60;;;19.50;99.90;;;;;;4927201;29;20503;-78
2023/06/09 03:36:37;;;;;;;9.32;6.78;;;19.50;99.90;;;;;;4902122;29;20051;-78
2023/06/09 03:39:03;;;;;;;11.88;6.30;;;19.50;99.90;;;;;;4933435;29;20052;-79
2023/06/09 03:41:29;;;;;;;9.23;6.60;;;19.50;99.90;;;;;;4918247;29;20492;-79
2023/06/09 03:43:54;;;;;;;8.20;6.40;;;19.50;99.90;;;;;;4917879;29;20047;-78
2023/06/09 03:46:20;;;;;;;9.20;6.10;;;19.50;99.90;;;;;;4913664;29;20418;-78
2023/06/09 03:48:47;;;;;;;9.20;6.40;;;19.50;99.90;;;;;;4901347;29;20199;-78
2023/06/09 03:51:12;;;;;;;10.23;7.15;;;19.40;99.90;;;;;;4917031;29;20044;-78
2023/06/09 03:53:38;;;;;;;10.07;7.03;;;19.40;99.90;;;;;;4922339;29;20047;-78
2023/06/09 03:56:04;;;;;;;9.80;6.70;;;19.40;99.90;;;;;;4902163;29;20433;-79
2023/06/09 03:58:32;;;;;;;11.05;7.15;;;19.40;99.90;;;;;;4916146;29;20138;-78
2023/06/09 04:00:57;;;;;;;8.80;6.85;;;19.40;99.90;;;;;;4926507;29;20113;-78
2023/06/09 04:03:23;;;;;;;12.52;7.35;;;19.40;99.90;;;;;;4912148;29;20497;-78
2023/06/09 04:05:49;;;;;;;9.52;6.97;;;19.40;99.90;;;;;;4909014;29;20044;-78
2023/06/09 04:08:15;;;;;;;8.27;6.90;;;19.30;99.90;;;;;;4909191;29;20493;-78
2023/06/09 04:10:42;;;;;;;9.38;6.95;;;19.30;99.90;;;;;;4932930;29;20076;-78
2023/06/09 04:13:11;;;;;;;8.55;6.85;;;19.40;99.90;;;;;;4932440;29;20044;-78
2023/06/09 04:15:37;;;;;;;10.13;7.22;;;19.30;99.90;;;;;;4927366;29;20119;-78
2023/06/09 04:18:03;;;;;;;8.93;7.25;;;19.30;99.90;;;;;;4902271;29;20477;-78
2023/06/09 04:20:29;;;;;;;10.15;7.78;;;19.30;99.90;;;;;;4901112;29;20139;-78
2023/06/09 04:22:55;;;;;;;12.52;7.55;;;19.30;99.90;;;;;;4948016;29;20113;-78
2023/06/09 04:25:34;;;;;;;10.25;7.35;;;19.40;99.90;;;;;;4923328;29;20051;-78
2023/06/09 04:28:02;;;;;;;9.93;7.53;;;19.40;99.90;;;;;;4907548;29;20045;-79
2023/06/09 04:30:29;;;;;;;11.10;7.97;;;19.40;99.90;;;;;;4892268;29;20044;-79
2023/06/09 04:32:58;;;;;;;11.18;7.28;;;19.40;99.90;;;;;;4886164;29;20127;-79
2023/06/09 04:35:24;;;;;;;11.55;7.95;;;19.40;99.90;;;;;;4902150;29;20131;-79
2023/06/09 04:37:49;;;;;;;10.95;7.63;;;19.40;99.90;;;;;;4917529;29;20076;-79
2023/06/09 04:40:23;;;;;;;8.57;7.38;;;19.40;99.90;;;;;;4930739;29;20048;-79
2023/06/09 04:42:53;;;;;;;10.48;7.72;;;19.40;99.90;;;;;;4925144;29;20049;-78
2023/06/09 04:45:20;;;;;;;10.80;7.70;;;19.40;99.90;;;;;;4929649;29;20369;-78
2023/06/09 04:47:49;;;;;;;10.30;7.88;;;19.40;99.90;;;;;;4915315;29;20048;-78
2023/06/09 04:50:15;;;;;;;12.88;7.82;;;19.40;99.90;;;;;;4926895;29;20059;-78
2023/06/09 04:52:44;;;;;;;12.40;7.93;;;19.40;99.90;;;;;;4913814;29;20044;-79
2023/06/09 04:55:14;;;;;;;10.85;7.85;;;19.40;99.90;;;;;;4914460;29;20048;-78
2023/06/09 04:57:40;;;;;;;10.23;7.60;;;19.50;99.90;;;;;;4916430;29;20724;-79
2023/06/09 05:00:10;;;;;;;10.93;7.80;;;19.50;99.90;;;;;;4935578;29;20785;-78
2023/06/09 05:02:36;;;;;;;9.27;7.95;;;19.50;99.90;;;;;;4919923;29;20597;-79
2023/06/09 05:05:02;;;;;;;13.40;8.40;;;19.50;99.90;;;;;;4920391;29;20075;-78
2023/06/09 05:07:28;;;;;;;12.40;8.05;;;19.50;99.90;;;;;;4919880;29;20103;-78
2023/06/09 05:09:54;;;;;;;11.82;8.10;;;19.50;99.90;;;;;;4917650;29;20508;-78
2023/06/09 05:12:20;;;;;;;14.90;8.20;;;19.50;99.90;;;;;;4923541;29;20055;-79
2023/06/09 05:14:46;;;;;;;13.13;8.20;;;19.50;99.90;;;;;;4916600;29;20046;-79
2023/06/09 05:17:12;;;;;;;9.88;7.60;;;19.50;99.90;;;;;;4930496;29;20130;-78
2023/06/09 05:19:38;;;;;;;18.15;7.78;;;19.60;99.90;;;;;;4910899;29;20048;-79
2023/06/09 05:22:04;;;;;;;12.45;8.23;;;19.60;99.90;;;;;;4930848;29;20384;-77
2023/06/09 05:24:30;;;;;;;11.20;7.28;;;19.60;99.90;;;;;;4914861;29;20055;-79
2023/06/09 05:26:56;;;;;;;13.15;7.80;;;19.70;99.90;;;;;;4916904;29;20059;-78
2023/06/09 05:29:22;;;;;;;10.55;7.22;;;19.70;99.90;;;;;;4909399;29;20056;-80
2023/06/09 05:31:48;;;;;;;10.07;7.53;;;19.70;99.90;;;;;;4911909;29;20040;-81
2023/06/09 05:34:14;;;;;;;10.43;7.63;;;19.70;99.90;;;;;;4922124;29;20118;-80
2023/06/09 05:36:40;;;;;;;11.30;7.32;;;19.70;99.90;;;;;;4905717;29;20521;-81
2023/06/09 05:39:07;;;;;;;12.88;7.88;;;19.70;99.90;;;;;;4918495;29;20533;-81
2023/06/09 05:41:32;;;;;;;8.82;7.93;;;19.70;99.90;;;;;;4904450;29;20450;-80
2023/06/09 05:43:58;;;;;;;12.02;7.35;;;19.80;99.90;;;;;;4929616;29;20052;-79
2023/06/09 05:46:25;;;;;;;12.80;7.72;;;19.80;99.90;;;;;;4920564;29;20040;-80
2023/06/09 05:48:53;;;;;;;11.15;7.80;;;19.80;99.90;;;;;;4926851;29;20471;-80
2023/06/09 05:51:19;;;;;;;;;;;19.80;99.90;;;;;;4902134;29;20090;-80
2023/06/09 05:53:46;;;;;;;11.10;7.45;;;19.80;99.90;;;;;;4932155;29;19914;-80
2023/06/09 05:56:14;;;;;;;12.30;7.00;;;19.80;99.90;;;;;;4916376;29;20428;-81
2023/06/09 05:58:39;;;;;;;11.25;7.20;;;19.80;99.90;;;;;;4906042;29;20044;-81
2023/06/09 06:01:07;;;;;;;9.52;6.78;;;19.80;99.90;;;;;;4924912;29;20044;-80
2023/06/09 06:03:33;;;;;;;12.77;7.78;;;19.80;99.80;;;;;;4910347;29;20131;-81
2023/06/09 06:05:58;;;;;;;11.25;6.75;;;19.80;99.70;;;;;;4898419;29;20075;-80
2023/06/09 06:08:24;;;;;;;8.60;6.68;;;19.90;99.70;;;;;;4919889;29;20058;-81
2023/06/09 06:10:51;;;;;;;9.50;6.72;;;19.90;99.60;;;;;;4933644;29;20180;-80
2023/06/09 06:13:17;;;;;;;9.13;6.93;;;19.80;99.50;;;;;;4923343;29;20052;-80
2023/06/09 06:15:43;;;;;;;11.60;6.30;;;19.90;99.30;;;;;;4920333;29;20057;-81
2023/06/09 06:18:09;;;;;;;8.07;6.07;;;19.90;99.20;;;;;;4904817;29;20466;-81
2023/06/09 06:20:34;;;;;;;10.25;6.80;;;19.90;98.90;;;;;;4926780;29;20055;-80
2023/06/09 06:23:01;;;;;;;10.13;6.78;;;19.90;98.70;;;;;;4924689;29;20052;-80
2023/06/09 06:25:28;;;;;;;9.07;6.20;;;20.00;98.60;;;;;;4935673;29;20046;-80
2023/06/09 06:27:55;;;;;;;10.83;6.20;;;20.00;98.50;;;;;;4914351;29;20047;-80
2023/06/09 06:30:21;;;;;;;8.60;6.28;;;20.00;98.40;;;;;;4907122;29;20662;-81
2023/06/09 06:32:51;;;;;;;10.38;6.40;;;20.10;98.30;;;;;;4914730;29;20040;-82
2023/06/09 06:35:24;;;;;;;7.97;6.03;;;20.10;98.30;;;;;;4936857;29;20067;-80
2023/06/09 06:37:50;;;;;;;8.77;5.70;;;20.20;98.30;;;;;;4932536;29;20040;-81
2023/06/09 06:40:16;;;;;;;14.25;6.50;;;20.20;98.20;;;;;;4929111;29;20492;-81
2023/06/09 06:42:42;;;;;;;8.65;6.60;;;20.20;98.10;;;;;;4919169;29;20044;-80
2023/06/09 06:45:08;;;;;;;8.48;6.45;;;20.30;98.10;;;;;;4907139;29;20040;-81
2023/06/09 06:47:34;;;;;;;10.15;6.07;;;20.30;98.10;;;;;;4880987;29;20069;-81
2023/06/09 06:50:00;;;;;;;8.40;6.13;;;20.30;98.20;;;;;;4923317;29;20115;-80
2023/06/09 06:52:26;;;;;;;8.27;5.82;;;20.40;98.20;;;;;;4911513;29;20147;-81
2023/06/09 06:54:52;;;;;;;11.98;6.30;;;20.40;98.20;;;;;;4895420;29;20067;-81
2023/06/09 06:57:17;;;;;;;12.40;6.22;;;20.50;98.10;;;;;;4929006;29;20036;-79
2023/06/09 06:59:43;;;;;;;10.98;6.28;;;20.50;98.00;;;;;;4903130;29;20461;-80
2023/06/09 07:02:10;;;;;;;8.93;5.90;;;20.50;97.90;;;;;;4935477;29;20047;-81
2023/06/09 07:04:36;;;;;;;9.52;6.55;;;20.60;97.90;;;;;;4935682;29;20044;-80
2023/06/09 07:07:02;;;;;;;10.68;6.43;;;20.60;97.90;;;;;;4924468;29;20102;-81
2023/06/09 07:09:28;;;;;;;9.40;5.72;;;20.60;97.80;;;;;;4911834;29;20056;-80
2023/06/09 07:11:54;;;;;;;9.88;6.47;;;20.60;97.80;;;;;;4895769;29;20339;-80
2023/06/09 07:14:20;;;;;;;9.27;6.25;;;20.70;97.80;;;;;;4909548;29;20040;-81
2023/06/09 07:16:45;;;;;;;12.73;6.03;;;20.70;97.80;;;;;;4922771;29;20836;-81
2023/06/09 07:19:11;;;;;;;9.00;6.18;;;20.80;97.80;;;;;;4916938;29;20132;-80
2023/06/09 07:21:37;;;;;;;8.80;5.82;;;20.80;97.80;;;;;;4936067;29;20125;-81
2023/06/09 07:24:06;;;;;;;9.30;5.85;;;20.80;97.60;;;;;;4903605;29;20058;-80
2023/06/09 07:26:32;;;;;;;8.52;5.82;;;20.90;97.70;;;;;;4916995;29;20057;-81
2023/06/09 07:28:58;;;;;;;9.40;5.50;;;20.90;97.70;;;;;;4903828;29;20120;-81
2023/06/09 07:31:24;;;;;;;9.13;5.57;;;20.90;97.70;;;;;;4933067;29;20124;-81
2023/06/09 07:33:50;;;;;;;10.15;5.97;;;21.00;97.70;;;;;;4887313;29;20736;-81
2023/06/09 07:36:16;;;;;;;9.30;6.38;;;21.00;97.70;;;;;;4913952;29;20056;-81
2023/06/09 07:38:46;;;;;;;10.18;5.75;;;21.00;97.80;;;;;;4932126;29;20063;-81
2023/06/09 07:41:13;;;;;;;8.98;6.20;;;21.10;97.90;;;;;;4912131;29;20056;-80
2023/06/09 07:43:39;;;;;;;11.48;6.15;;;21.10;98.10;;;;;;4902871;29;20055;-81
2023/06/09 07:46:05;;;;;;;13.57;6.13;;;21.10;97.80;;;;;;4922922;29;20048;-80
2023/06/09 07:48:30;;;;;;;9.25;6.10;;;21.20;97.50;;;;;;4918326;29;20056;-81
2023/06/09 07:50:56;;;;;;;9.93;6.10;;;21.20;97.40;;;;;;4903090;29;20046;-81
2023/06/09 07:53:22;;;;;;;9.85;6.28;;;21.20;97.50;;;;;;4925405;29;20076;-81
2023/06/09 07:55:48;;;;;;;9.32;5.93;;;21.20;96.70;;;;;;4917640;29;20051;-81
2023/06/09 07:58:14;;;;;;;10.88;6.20;;;21.20;96.10;;;;;;4911581;29;20044;-80
2023/06/09 08:00:41;;;;;;;8.02;5.03;;;21.30;95.70;;;;;;4913590;29;20127;-81
2023/06/09 08:03:08;;;;;;;8.70;5.70;;;21.30;95.20;;;;;;4910576;29;20051;-82
2023/06/09 08:05:35;;;;;;;11.30;5.50;;;21.30;95.20;;;;;;4915288;29;20108;-81
2023/06/09 08:08:02;;;;;;;6.97;5.55;;;21.30;95.20;;;;;;4927225;29;20041;-79
2023/06/09 08:10:28;;;;;;;8.52;5.80;;;21.30;95.00;;;;;;4913017;29;20056;-79
2023/06/09 08:12:54;;;;;;;8.93;5.70;;;21.30;95.00;;;;;;4915640;29;20106;-79
2023/06/09 08:15:21;;;;;;;10.23;5.57;;;21.30;95.10;;;;;;4936483;29;20061;-79
2023/06/09 08:17:47;;;;;;;9.55;5.47;;;21.30;95.40;;;;;;4914942;29;20059;-79
2023/06/09 08:20:12;;;;;;;8.40;4.93;;;21.40;95.40;;;;;;4918646;29;20084;-79
2023/06/09 08:22:38;;;;;;;10.20;5.78;;;21.40;95.50;;;;;;4930618;29;20052;-79
2023/06/09 08:25:04;;;;;;;9.48;5.88;;;21.40;95.60;;;;;;4936824;29;20044;-79
2023/06/09 08:27:30;;;;;;;8.13;5.90;;;21.40;95.20;;;;;;4910786;29;20052;-80
2023/06/09 08:29:56;;;;;;;8.50;6.40;;;21.40;95.30;;;;;;4925230;29;20052;-79
2023/06/09 08:32:23;;;;;;;7.72;5.78;;;21.40;95.00;;;;;;4920811;29;20055;-81
2023/06/09 08:34:49;;;;;;;10.32;5.57;;;21.40;94.90;;;;;;4905383;29;20107;-79
2023/06/09 08:37:15;;;;;;;9.40;6.22;;;21.40;94.80;;;;;;4906135;29;20080;-80
2023/06/09 08:39:41;;;;;;;10.50;5.78;;;21.40;94.70;;;;;;4907763;29;20045;-79
2023/06/09 08:42:15;;;;;;;13.32;5.82;;;21.40;95.10;;;;;;4920737;29;20068;-79
2023/06/09 08:44:40;;;;;;;9.95;6.13;;;21.50;95.10;;;;;;4894327;29;20055;-79
2023/06/09 08:47:07;;;;;;;9.13;5.85;;;21.50;95.40;;;;;;4925787;29;20048;-79
2023/06/09 08:49:33;;;;;;;9.23;5.57;;;21.50;95.50;;;;;;4924606;29;20054;-79
2023/06/09 08:51:59;;;;;;;12.13;5.75;;;21.50;95.30;;;;;;4918060;29;20393;-79
2023/06/09 08:54:25;;;;;;;9.32;6.07;;;21.50;95.40;;;;;;4934704;29;20048;-79
2023/06/09 08:56:52;;;;;;;11.00;5.63;;;21.50;95.50;;;;;;4912294;29;20143;-78
2023/06/09 08:59:20;;;;;;;10.93;5.67;;;21.60;95.80;;;;;;4942483;29;20043;-79
2023/06/09 09:01:49;;;;;;;12.30;5.97;;;21.60;95.80;;;;;;4928569;29;20044;-79
2023/06/09 09:04:15;;;;;;;8.88;5.90;;;21.60;95.60;;;;;;4935822;29;20063;-79
2023/06/09 09:06:40;;;;;;;8.45;5.50;;;21.60;94.90;;;;;;4901627;29;20040;-79
2023/06/09 09:09:06;;;;;;;7.60;5.65;;;21.60;94.50;;;;;;4915403;29;20052;-79
2023/06/09 09:11:32;;;;;;;9.75;6.00;;;21.50;94.30;;;;;;4927048;29;20100;-79
2023/06/09 09:13:58;;;;;;;9.35;6.03;;;21.60;94.70;;;;;;4937869;29;20045;-79
2023/06/09 09:16:32;;;;;;;10.23;5.63;;;21.50;94.70;;;;;;4928784;29;20458;-79
2023/06/09 09:18:58;;;;;;;10.10;5.53;;;21.60;94.60;;;;;;4902167;29;20056;-79
2023/06/09 09:21:23;;;;;;;12.82;5.95;;;21.60;94.10;;;;;;4944052;29;20051;-79
2023/06/09 09:24:01;;;;;;;11.57;5.93;;;21.50;93.30;;;;;;4914857;29;20052;-79
2023/06/09 09:26:28;;;;;;;9.27;5.65;;;21.50;93.30;;;;;;4901876;29;20450;-79
2023/06/09 09:28:55;;;;;;;9.98;5.60;;;21.50;93.30;;;;;;4929223;29;20083;-79
2023/06/09 09:31:29;;;;;;;10.90;5.63;;;21.50;93.70;;;;;;4919551;29;20091;-79
2023/06/09 09:33:55;;;;;;;7.93;5.90;;;21.50;93.80;;;;;;4928280;29;20662;-79
2023/06/09 09:36:21;;;;;;;10.32;5.60;;;21.50;94.00;;;;;;4927997;29;20051;-79
2023/06/09 09:38:49;;;;;;;7.43;5.47;;;21.60;94.40;;;;;;4917085;29;20135;-79
2023/06/09 09:41:15;;;;;;;9.50;5.22;;;21.50;94.40;;;;;;4904763;29;20051;-79
2023/06/09 09:43:41;;;;;;;9.82;5.88;;;21.50;94.70;;;;;;4903688;29;20040;-79
2023/06/09 09:46:08;;;;;;;10.15;6.00;;;21.60;95.30;;;;;;4901858;29;20040;-80
2023/06/09 09:48:37;;;;;;;8.40;6.10;;;21.50;94.70;;;;;;4914477;29;20127;-79
2023/06/09 09:51:03;;;;;;;8.60;5.65;;;21.50;94.50;;;;;;4933283;29;20109;-79
2023/06/09 09:53:30;;;;;;;9.80;6.10;;;21.50;94.10;;;;;;4943361;29;20045;-79
2023/06/09 09:55:58;;;;;;;9.82;6.40;;;21.50;94.20;;;;;;4935197;29;20048;-79
2023/06/09 09:58:29;;;;;;;10.05;6.22;;;21.40;93.80;;;;;;4900437;29;20427;-79
2023/06/09 10:00:57;;;;;;;9.75;5.95;;;21.40;93.40;;;;;;4932591;29;20044;-79
2023/06/09 10:03:23;;;;;;;10.13;5.90;;;21.40;93.20;;;;;;4914324;29;20044;-79
2023/06/09 10:05:49;;;;;;;9.63;5.82;;;21.40;93.30;;;;;;4912574;29;20040;-79
2023/06/09 10:08:26;;;;;;;8.65;5.68;;;21.40;93.60;;;;;;4934444;29;20111;-80
2023/06/09 10:10:53;;;;;;;10.03;5.77;;;21.40;93.80;;;;;;4930167;29;20072;-80
2023/06/09 10:13:19;;;;;;;9.32;6.07;;;21.40;94.00;;;;;;4930803;29;20046;-80
2023/06/09 10:15:46;;;;;;;14.23;5.97;;;21.50;93.90;;;;;;4888452;29;20051;-79
2023/06/09 10:18:12;;;;;;;9.80;5.88;;;21.50;93.80;;;;;;4910167;29;20044;-79
2023/06/09 10:20:40;;;;;;;10.23;6.28;;;21.50;94.00;;;;;;4932813;29;20051;-79
2023/06/09 10:23:06;;;;;;;;;;;21.50;93.90;;;;;;4923396;29;20036;-79
2023/06/09 10:25:33;;;;;;;9.60;6.32;;;21.60;94.00;;;;;;4914102;29;20252;-80
2023/06/09 10:28:00;;;;;;;11.68;6.05;;;21.50;93.90;;;;;;4932439;29;20126;-79
2023/06/09 10:30:28;;;;;;;8.77;5.32;;;21.60;93.90;;;;;;4906243;29;20116;-80
2023/06/09 10:32:58;;;;;;;;;;;21.60;93.90;;;;;;4897936;29;20036;-82
2023/06/09 10:35:28;;;;;;;7.10;5.55;;;21.60;94.00;;;;;;4909840;29;19949;-81
2023/06/09 10:37:56;;;;;;;7.10;5.38;;;21.60;94.10;;;;;;4911525;29;20085;-82
2023/06/09 10:40:43;;;;;;;9.02;6.13;;;21.60;94.00;;;;;;4924821;29;20048;-81
2023/06/09 10:43:31;;;;;;;9.23;5.93;;;21.50;94.00;;;;;;4923629;29;20048;-82
2023/06/09 10:45:58;;;;;;;11.43;6.50;;;21.50;93.90;;;;;;4879349;29;20398;-81
2023/06/09 10:48:43;;;;;;;11.52;6.38;;;21.30;93.80;;;;;;4911497;29;20044;-82
2023/06/09 10:51:27;;;;;;;11.63;6.80;;;21.40;94.00;;;;;;4938889;29;20051;-81
2023/06/09 10:54:12;;;;;;;8.40;6.15;;;21.20;94.10;;;;;;4920953;29;20036;-82
2023/06/09 10:56:57;;;;;;;10.20;6.43;;;21.30;94.20;;;;;;4906227;29;20048;-81
2023/06/09 10:59:26;;;;;;;10.82;6.35;;;21.40;94.10;;;;;;4907671;29;20122;-82
2023/06/09 11:02:04;;;;;;;13.15;7.07;;;21.40;93.90;;;;;;4916169;29;20200;-82
2023/06/09 11:04:43;;;;;;;9.73;6.15;;;21.30;93.90;;;;;;4917872;29;20075;-81
2023/06/09 11:07:18;;;;;;;10.10;6.53;;;21.30;93.90;;;;;;4910798;29;20477;-81
2023/06/09 11:09:47;;;;;;;8.73;6.10;;;21.40;94.10;;;;;;4911655;29;20501;-81
2023/06/09 11:12:38;;;;;;;10.45;6.68;;;21.40;93.80;;;;;;4919218;29;20115;-81
2023/06/09 11:15:06;;;;;;;10.90;5.97;;;21.40;93.80;;;;;;4910021;29;20043;-81
2023/06/09 11:17:42;;;;;;;11.57;6.50;;;21.30;94.00;;;;;;4888469;29;20043;-82
2023/06/09 11:20:10;;;;;;;10.50;6.38;;;21.40;94.10;;;;;;4916660;29;20044;-82
2023/06/09 11:22:42;;;;;;;;;;;21.20;93.90;;;;;;4929631;29;20048;-82
2023/06/09 11:25:17;;;;;;;10.38;6.88;;;21.30;94.10;;;;;;4933867;29;19982;-82
2023/06/09 11:27:47;;;;;;;9.00;6.25;;;21.40;94.30;;;;;;4912585;29;20055;-82
2023/06/09 11:30:20;;;;;;;9.70;7.00;;;21.30;94.40;;;;;;4893300;29;20063;-81
2023/06/09 11:33:00;;;;;;;13.18;6.38;;;21.30;94.50;;;;;;4932612;29;20039;-81
2023/06/09 11:35:43;;;;;;;12.18;6.80;;;21.30;94.80;;;;;;4904015;29;20044;-82
2023/06/09 11:38:10;;;;;;;12.45;6.72;;;21.20;94.60;;;;;;4900102;29;20063;-82
2023/06/09 11:40:52;;;;;;;12.77;6.20;;;21.10;94.90;;;;;;4923242;29;20048;-81
2023/06/09 11:43:19;;;;;;;12.20;7.22;;;21.20;94.90;;;;;;4935576;29;20051;-82
2023/06/09 11:45:45;;;;;;;9.07;6.10;;;21.20;95.10;;;;;;4906664;29;20052;-82
2023/06/09 11:48:11;;;;;;;14.13;6.97;;;21.20;95.00;;;;;;4900063;29;20533;-81
2023/06/09 11:50:45;;;;;;;11.43;6.38;;;21.30;95.20;;;;;;4914465;29;20045;-82
2023/06/09 11:53:11;;;;;;;12.90;6.82;;;21.30;95.10;;;;;;4915563;29;20044;-82
2023/06/09 11:55:37;;;;;;;13.15;6.82;;;21.40;94.80;;;;;;4904482;29;20111;-83
2023/06/09 11:58:04;;;;;;;10.40;5.97;;;21.30;94.40;;;;;;4906585;29;20036;-82
2023/06/09 12:00:32;;;;;;;7.55;5.95;;;21.20;94.60;;;;;;4933288;29;20070;-81
2023/06/09 12:02:58;;;;;;;12.82;6.28;;;21.20;94.90;;;;;;4891409;29;20040;-81
2023/06/09 12:05:25;;;;;;;9.23;6.45;;;21.30;94.50;;;;;;4905608;29;20044;-83
2023/06/09 12:07:53;;;;;;;10.02;5.57;;;21.30;94.70;;;;;;4918586;29;20154;-81
2023/06/09 12:10:22;;;;;;;7.40;5.40;;;21.40;94.60;;;;;;4887698;29;20059;-81
2023/06/09 12:12:52;;;;;;;12.32;6.07;;;21.30;94.40;;;;;;4916126;29;20048;-84
2023/06/09 12:15:18;;;;;;;9.82;5.68;;;21.20;94.50;;;;;;4927651;29;20052;-80
2023/06/09 12:17:50;;;;;;;7.38;5.47;;;21.30;94.60;;;;;;4917967;29;20116;-80
2023/06/09 12:20:28;;;;;;;8.65;5.20;;;21.30;94.40;;;;;;4896913;29;20044;-81
2023/06/09 12:23:13;;;;;;;6.63;5.30;;;21.40;94.50;;;;;;4916400;29;20103;-80
2023/06/09 12:25:49;;;;;;;9.93;6.13;;;21.50;94.70;;;;;;4932506;29;20048;-82
2023/06/09 12:28:17;;;;;;;6.53;5.40;;;21.50;95.20;;;;;;4926715;29;20044;-81
2023/06/09 12:30:50;;;;;;;6.30;4.85;;;21.50;94.90;;;;;;4912593;29;20062;-81
2023/06/09 12:33:17;;;;;;;8.80;5.30;;;21.70;95.20;;;;;;4922857;29;20124;-82
2023/06/09 12:35:43;;;;;;;8.38;6.10;;;21.80;95.30;;;;;;4927534;29;20098;-81
2023/06/09 12:38:33;;;;;;;11.48;7.03;;;21.90;95.50;;;;;;4912347;29;20087;-81
2023/06/09 12:41:05;;;;;;;12.98;6.97;;;22.00;96.20;;;;;;4896745;29;20044;-81
2023/06/09 12:43:42;;;;;;;11.02;6.25;;;22.00;96.00;;;;;;4887696;29;20098;-81
2023/06/09 12:46:08;;;;;;;9.05;6.35;;;22.00;96.00;;;;;;4902500;29;20044;-81
2023/06/09 12:48:34;;;;;;;9.82;6.18;;;22.00;96.10;;;;;;4935709;29;20095;-82